createdAt,value
2022-09-11T00:01:18.415Z,96728.09
2022-09-11T00:03:47.820Z,96719.13
2022-09-11T00:06:28.586Z,96730.59
2022-09-11T00:09:00.408Z,96722.63
2022-09-11T00:11:30.518Z,96717.88
2022-09-11T00:13:58.830Z,96719.13
2022-09-11T00:16:30.079Z,96713.13
2022-09-11T00:19:00.816Z,96713.41
2022-09-11T00:21:29.476Z,96707.09
2022-09-11T00:23:58.131Z,96706.66
2022-09-11T00:26:26.850Z,96706.66
2022-09-11T00:28:56.153Z,96710.47
2022-09-11T00:31:26.583Z,96706.81
2022-09-11T00:33:56.618Z,96703.88
2022-09-11T00:36:27.381Z,96706.38
2022-09-11T00:38:56.371Z,96709.31
2022-09-11T00:41:27.365Z,96702.03
2022-09-11T00:44:07.269Z,96700.06
2022-09-11T00:46:39.941Z,96698.69
2022-09-11T00:49:25.251Z,96697.84
2022-09-11T00:51:56.809Z,96697.03
2022-09-11T00:54:29.664Z,96698.69
2022-09-11T00:57:01.318Z,96694.91
2022-09-11T00:59:31.529Z,96694.19
2022-09-11T01:01:59.549Z,96696.16
2022-09-11T01:04:29.584Z,96696.84
2022-09-11T01:07:00.318Z,96693.66
2022-09-11T01:09:30.853Z,96695.88
2022-09-11T01:12:06.776Z,96694.75
2022-09-11T01:14:45.452Z,96695.03
2022-09-11T01:17:26.981Z,96683.28
2022-09-11T01:20:14.286Z,96688.59
2022-09-11T01:22:59.473Z,96687.22
2022-09-11T01:25:35.044Z,96693.06
2022-09-11T01:28:12.600Z,96699.50
2022-09-11T01:30:47.450Z,96696.16
2022-09-11T01:33:23.615Z,96700.06
2022-09-11T01:35:57.498Z,96706.53
2022-09-11T01:38:35.419Z,96705.13
2022-09-11T01:41:09.243Z,96708.19
2022-09-11T01:43:44.119Z,96699.25
2022-09-11T01:46:17.559Z,96694.94
2022-09-11T01:48:49.176Z,96703.19
2022-09-11T01:51:22.327Z,96698.44
2022-09-11T01:53:52.608Z,96697.59
2022-09-11T01:56:24.964Z,96695.47
2022-09-11T01:59:00.031Z,96695.75
2022-09-11T02:01:31.815Z,96704.44
2022-09-11T02:04:07.459Z,96705.84
2022-09-11T02:06:43.674Z,96702.91
2022-09-11T02:09:16.662Z,96702.78
2022-09-11T02:11:49.584Z,96702.91
2022-09-11T02:14:27.010Z,96707.22
2022-09-11T02:17:04.528Z,96703.75
2022-09-11T02:19:32.926Z,96702.34
2022-09-11T02:22:01.180Z,96702.66
2022-09-11T02:24:29.760Z,96706.31
2022-09-11T02:27:02.511Z,96712.44
2022-09-11T02:29:34.284Z,96709.94
2022-09-11T02:32:03.871Z,96709.66
2022-09-11T02:34:34.559Z,96708.09
2022-09-11T02:37:15.309Z,96714.97
2022-09-11T02:40:03.637Z,96722.97
2022-09-11T02:42:44.707Z,96721.25
2022-09-11T02:45:30.537Z,96714.69
2022-09-11T02:48:12.196Z,96729.09
2022-09-11T02:50:46.760Z,96720.97
2022-09-11T02:53:26.749Z,96726.16
2022-09-11T02:56:04.616Z,96720.97
2022-09-11T02:58:40.933Z,96720.13
2022-09-11T03:01:11.897Z,96720.00
2022-09-11T03:03:45.279Z,96717.34
2022-09-11T03:06:17.777Z,96726.84
2022-09-11T03:08:47.204Z,96721.66
2022-09-11T03:11:17.754Z,96721.41
2022-09-11T03:13:47.876Z,96712.56
2022-09-11T03:16:19.168Z,96724.72
2022-09-11T03:18:47.356Z,96717.22
2022-09-11T03:21:16.981Z,96726.84
2022-09-11T03:23:45.034Z,96728.50
2022-09-11T03:26:12.973Z,96722.94
2022-09-11T03:28:41.123Z,96725.72
2022-09-11T03:31:09.535Z,96725.84
2022-09-11T03:33:39.508Z,96721.41
2022-09-11T03:36:07.890Z,96721.09
2022-09-11T03:38:36.170Z,96730.75
2022-09-11T03:41:04.612Z,96732.88
2022-09-11T03:43:35.176Z,96735.38
2022-09-11T03:46:03.322Z,96733.41
2022-09-11T03:48:32.453Z,96731.44
2022-09-11T03:51:01.892Z,96732.13
2022-09-11T03:53:29.885Z,96729.59
2022-09-11T03:55:59.115Z,96733.28
2022-09-11T03:58:27.246Z,96731.59
2022-09-11T04:00:56.253Z,96733.69
2022-09-11T04:03:24.671Z,96729.91
2022-09-11T04:06:01.955Z,96735.94
2022-09-11T04:08:33.825Z,96737.06
2022-09-11T04:11:06.736Z,96733.28
2022-09-11T04:13:38.806Z,96728.09
2022-09-11T04:16:12.782Z,96726.41
2022-09-11T04:18:44.114Z,96717.44
2022-09-11T04:21:15.358Z,96721.78
2022-09-11T04:23:45.613Z,96714.78
2022-09-11T04:26:15.916Z,96721.09
2022-09-11T04:28:45.883Z,96719.97
2022-09-11T04:31:17.031Z,96726.41
2022-09-11T04:33:45.889Z,96731.59
2022-09-11T04:36:19.063Z,96736.75
2022-09-11T04:38:48.088Z,96736.75
2022-09-11T04:41:17.574Z,96742.09
2022-09-11T04:43:45.569Z,96737.06
2022-09-11T04:46:17.480Z,96745.75
2022-09-11T04:48:46.923Z,96746.44
2022-09-11T04:51:22.822Z,96743.06
2022-09-11T04:53:51.761Z,96753.72
2022-09-11T04:56:21.900Z,96755.69
2022-09-11T04:58:55.122Z,96770.66
2022-09-11T05:01:27.517Z,96777.09
2022-09-11T05:04:00.567Z,96783.25
2022-09-11T05:06:31.337Z,96787.47
2022-09-11T05:09:04.305Z,96782.97
2022-09-11T05:11:35.464Z,96790.97
2022-09-11T05:14:04.079Z,96793.75
2022-09-11T05:16:35.742Z,96793.63
2022-09-11T05:19:05.185Z,96796.41
2022-09-11T05:21:36.848Z,96794.59
2022-09-11T05:24:06.099Z,96795.28
2022-09-11T05:26:40.176Z,96803.97
2022-09-11T05:29:12.649Z,96805.66
2022-09-11T05:31:53.199Z,96803.28
2022-09-11T05:34:22.522Z,96808.16
2022-09-11T05:36:53.232Z,96807.31
2022-09-11T05:39:21.344Z,96811.53
2022-09-11T05:41:51.608Z,96814.19
2022-09-11T05:44:19.884Z,96818.50
2022-09-11T05:46:48.844Z,96817.53
2022-09-11T05:49:16.946Z,96814.06
2022-09-11T05:51:45.277Z,96807.88
2022-09-11T05:54:15.381Z,96816.28
2022-09-11T05:56:43.549Z,96825.09
2022-09-11T05:59:18.246Z,96828.91
2022-09-11T06:01:49.791Z,96832.81
2022-09-11T06:04:38.055Z,96832.56
2022-09-11T06:07:07.597Z,96835.88
2022-09-11T06:09:37.728Z,96840.06
2022-09-11T06:12:06.182Z,96840.06
2022-09-11T06:14:34.167Z,96840.78
2022-09-11T06:17:02.147Z,96857.59
2022-09-11T06:19:33.226Z,96850.16
2022-09-11T06:22:01.297Z,96849.03
2022-09-11T06:24:42.104Z,96853.38
2022-09-11T06:27:10.228Z,96860.25
2022-09-11T06:29:42.108Z,96860.06
2022-09-11T06:32:10.773Z,96861.78
2022-09-11T06:34:40.423Z,96860.78
2022-09-11T06:37:12.088Z,96864.13
2022-09-11T06:39:41.528Z,96869.47
2022-09-11T06:42:11.907Z,96878.16
2022-09-11T06:44:42.008Z,96876.03
2022-09-11T06:47:13.442Z,96875.88
2022-09-11T06:49:41.449Z,96878.94
2022-09-11T06:52:28.138Z,96872.34
2022-09-11T06:55:17.768Z,96881.19
2022-09-11T06:57:54.180Z,96870.94
2022-09-11T07:00:26.952Z,96873.31
2022-09-11T07:02:56.424Z,96875.56
2022-09-11T07:05:25.919Z,96878.59
2022-09-11T07:07:55.403Z,96872.72
2022-09-11T07:10:26.313Z,96874.25
2022-09-11T07:12:58.863Z,96869.44
2022-09-11T07:15:27.270Z,96883.00
2022-09-11T07:17:55.939Z,96873.19
2022-09-11T07:20:23.888Z,96879.53
2022-09-11T07:22:51.963Z,96880.31
2022-09-11T07:25:21.784Z,96888.69
2022-09-11T07:27:51.985Z,96888.56
2022-09-11T07:30:21.234Z,96887.72
2022-09-11T07:32:52.837Z,96888.09
2022-09-11T07:35:21.796Z,96893.13
2022-09-11T07:37:52.065Z,96896.63
2022-09-11T07:40:24.646Z,96890.47
2022-09-11T07:42:54.640Z,96897.31
2022-09-11T07:45:23.230Z,96895.50
2022-09-11T07:47:52.157Z,96899.84
2022-09-11T07:50:24.257Z,96903.03
2022-09-11T07:52:52.755Z,96908.09
2022-09-11T07:55:21.850Z,96905.28
2022-09-11T07:57:52.057Z,96910.63
2022-09-11T08:00:22.391Z,96906.09
2022-09-11T08:02:58.401Z,96902.81
2022-09-11T08:05:33.360Z,96913.03
2022-09-11T08:08:01.542Z,96912.81
2022-09-11T08:10:30.356Z,96913.03
2022-09-11T08:13:00.205Z,96918.91
2022-09-11T08:15:34.682Z,96920.00
2022-09-11T08:18:05.537Z,96920.13
2022-09-11T08:20:33.709Z,96920.38
2022-09-11T08:23:02.059Z,96913.38
2022-09-11T08:25:30.304Z,96917.41
2022-09-11T08:28:00.405Z,96915.50
2022-09-11T08:30:28.596Z,96925.84
2022-09-11T08:32:57.996Z,96920.06
2022-09-11T08:35:26.826Z,96926.94
2022-09-11T08:37:55.705Z,96929.69
2022-09-11T08:40:24.549Z,96936.47
2022-09-11T08:42:56.356Z,96928.09
2022-09-11T08:45:30.267Z,96925.97
2022-09-11T08:48:01.587Z,96934.03
2022-09-11T08:50:36.613Z,96936.56
2022-09-11T08:53:07.754Z,96927.41
2022-09-11T08:55:43.900Z,96935.03
2022-09-11T08:58:24.110Z,96937.22
2022-09-11T09:01:02.410Z,96937.47
2022-09-11T09:03:49.550Z,96932.66
2022-09-11T09:06:42.825Z,96930.50
2022-09-11T09:09:19.719Z,96930.22
2022-09-11T09:11:57.598Z,96935.72
2022-09-11T09:14:43.427Z,96937.25
2022-09-11T09:17:19.064Z,96943.44
2022-09-11T09:19:53.937Z,96936.00
2022-09-11T09:22:27.484Z,96948.50
2022-09-11T09:25:01.075Z,96947.53
2022-09-11T09:27:35.410Z,96946.38
2022-09-11T09:30:06.908Z,96941.06
2022-09-11T09:32:42.813Z,96940.91
2022-09-11T09:35:19.506Z,96957.84
2022-09-11T09:37:48.722Z,96952.50
2022-09-11T09:40:18.875Z,96951.44
2022-09-11T09:43:21.039Z,96950.69
2022-09-11T09:45:57.574Z,96939.41
2022-09-11T09:48:25.716Z,96940.66
2022-09-11T09:50:55.110Z,96937.50
2022-09-11T09:53:32.689Z,96939.41
2022-09-11T09:56:01.516Z,96942.56
2022-09-11T09:58:37.811Z,96939.03
2022-09-11T10:01:28.798Z,96941.03
2022-09-11T10:04:12.599Z,96940.56
2022-09-11T10:06:42.319Z,96938.81
2022-09-11T10:09:21.236Z,96943.28
2022-09-11T10:11:55.807Z,96938.00
2022-09-11T10:14:49.978Z,96937.84
2022-09-11T10:17:21.666Z,96936.78
2022-09-11T10:19:50.935Z,96928.25
2022-09-11T10:22:27.686Z,96926.13
2022-09-11T10:25:12.141Z,96928.16
2022-09-11T10:28:01.822Z,96936.84
2022-09-11T10:30:39.023Z,96922.47
2022-09-11T10:33:17.660Z,96919.59
2022-09-11T10:35:53.145Z,96925.13
2022-09-11T10:38:25.453Z,96922.97
2022-09-11T10:41:09.418Z,96917.44
2022-09-11T10:43:48.473Z,96918.13
2022-09-11T10:46:30.020Z,96929.66
2022-09-11T10:49:00.550Z,96926.00
2022-09-11T10:51:31.238Z,96917.44
2022-09-11T10:54:13.247Z,96924.31
2022-09-11T10:56:51.728Z,96924.16
2022-09-11T10:59:26.131Z,96928.16
2022-09-11T11:01:54.494Z,96928.66
2022-09-11T11:04:22.882Z,96921.81
2022-09-11T11:07:04.794Z,96924.47
2022-09-11T11:09:46.525Z,96925.81
2022-09-11T11:12:33.035Z,96933.69
2022-09-11T11:15:30.054Z,96922.13
2022-09-11T11:18:16.037Z,96932.50
2022-09-11T11:20:50.894Z,96929.16
2022-09-11T11:23:45.596Z,96920.13
2022-09-11T11:26:36.779Z,96929.84
2022-09-11T11:29:22.941Z,96931.53
2022-09-11T11:32:09.926Z,96926.16
2022-09-11T11:35:01.340Z,96916.78
2022-09-11T11:37:34.935Z,96931.88
2022-09-11T11:40:07.707Z,96919.47
2022-09-11T11:42:41.486Z,96922.31
2022-09-11T11:45:17.969Z,96925.53
2022-09-11T11:47:47.876Z,96913.81
2022-09-11T11:50:31.604Z,96918.50
2022-09-11T11:53:09.144Z,96917.31
2022-09-11T11:55:51.397Z,96918.81
2022-09-11T11:58:35.629Z,96921.78
2022-09-11T12:01:07.718Z,96913.75
2022-09-11T12:03:42.581Z,96916.25
2022-09-11T12:06:11.334Z,96913.06
2022-09-11T12:08:45.036Z,96912.38
2022-09-11T12:11:17.302Z,96907.31
2022-09-11T12:13:49.099Z,96908.28
2022-09-11T12:16:21.243Z,96896.59
2022-09-11T12:19:05.629Z,96907.19
2022-09-11T12:21:40.344Z,96906.72
2022-09-11T12:24:18.694Z,96909.06
2022-09-11T12:26:46.995Z,96908.94
2022-09-11T12:29:51.701Z,96908.22
2022-09-11T12:32:42.830Z,96918.47
2022-09-11T12:35:26.132Z,96925.16
2022-09-11T12:37:59.845Z,96928.19
2022-09-11T12:40:34.558Z,96920.00
2022-09-11T12:43:18.775Z,96905.91
2022-09-11T12:45:48.485Z,96916.81
2022-09-11T12:48:22.576Z,96921.50
2022-09-11T12:50:52.515Z,96916.13
2022-09-11T12:53:25.373Z,96913.09
2022-09-11T12:55:58.101Z,96924.34
2022-09-11T12:58:32.157Z,96915.44
2022-09-11T13:01:14.959Z,96912.59
2022-09-11T13:03:53.407Z,96912.22
2022-09-11T13:06:22.428Z,96906.22
2022-09-11T13:08:53.619Z,96905.81
2022-09-11T13:11:42.659Z,96905.59
2022-09-11T13:14:49.717Z,96910.31
2022-09-11T13:17:25.876Z,96904.56
2022-09-11T13:20:10.729Z,96899.25
2022-09-11T13:22:39.363Z,96890.47
2022-09-11T13:25:15.498Z,96892.84
2022-09-11T13:27:46.700Z,96892.69
2022-09-11T13:30:17.150Z,96892.69
2022-09-11T13:32:48.512Z,96892.16
2022-09-11T13:35:27.004Z,96889.97
2022-09-11T13:37:59.598Z,96897.38
2022-09-11T13:40:31.728Z,96888.00
2022-09-11T13:43:01.434Z,96894.34
2022-09-11T13:45:29.617Z,96892.50
2022-09-11T13:47:58.371Z,96894.22
2022-09-11T13:50:27.965Z,96885.84
2022-09-11T13:52:56.067Z,96889.66
2022-09-11T13:55:26.969Z,96890.69
2022-09-11T13:57:58.516Z,96885.03
2022-09-11T14:00:44.862Z,96883.16
2022-09-11T14:03:20.720Z,96877.81
2022-09-11T14:05:53.956Z,96874.44
2022-09-11T14:08:32.537Z,96868.56
2022-09-11T14:11:03.482Z,96874.63
2022-09-11T14:13:35.083Z,96863.72
2022-09-11T14:16:07.258Z,96868.78
2022-09-11T14:18:41.836Z,96869.78
2022-09-11T14:21:16.192Z,96862.13
2022-09-11T14:23:48.159Z,96862.94
2022-09-11T14:26:18.865Z,96857.78
2022-09-11T14:29:22.937Z,96858.63
2022-09-11T14:31:52.135Z,96854.09
2022-09-11T14:34:22.059Z,96853.94
2022-09-11T14:36:56.479Z,96852.75
2022-09-11T14:39:28.921Z,96852.78
2022-09-11T14:41:58.081Z,96843.72
2022-09-11T14:44:27.579Z,96844.25
2022-09-11T14:46:56.187Z,96842.75
2022-09-11T14:49:24.279Z,96840.56
2022-09-11T14:51:58.229Z,96847.28
2022-09-11T14:54:27.668Z,96843.91
2022-09-11T14:56:56.020Z,96838.06
2022-09-11T14:59:24.004Z,96839.75
2022-09-11T15:01:52.668Z,96841.06
2022-09-11T15:04:23.047Z,96841.72
2022-09-11T15:06:53.079Z,96840.22
2022-09-11T15:09:22.739Z,96845.44
2022-09-11T15:11:52.338Z,96845.78
2022-09-11T15:14:44.784Z,96843.09
2022-09-11T15:17:11.950Z,96838.41
2022-09-11T15:19:40.892Z,96839.91
2022-09-11T15:22:09.611Z,96835.06
2022-09-11T15:24:38.998Z,96826.00
2022-09-11T15:27:07.596Z,96833.06
2022-09-11T15:29:36.245Z,96835.06
2022-09-11T15:32:04.830Z,96831.88
2022-09-11T15:34:33.270Z,96827.38
2022-09-11T15:37:02.072Z,96822.50
2022-09-11T15:39:30.188Z,96817.63
2022-09-11T15:42:01.849Z,96815.63
2022-09-11T15:44:30.312Z,96819.47
2022-09-11T15:46:59.543Z,96813.78
2022-09-11T15:49:29.454Z,96816.97
2022-09-11T15:51:58.290Z,96820.31
2022-09-11T15:54:27.058Z,96810.72
2022-09-11T15:56:55.112Z,96822.28
2022-09-11T15:59:24.656Z,96820.59
2022-09-11T16:01:53.409Z,96821.09
2022-09-11T16:04:23.027Z,96814.91
2022-09-11T16:06:53.538Z,96819.06
2022-09-11T16:09:23.985Z,96810.53
2022-09-11T16:11:54.653Z,96815.09
2022-09-11T16:14:25.848Z,96806.88
2022-09-11T16:16:54.791Z,96818.41
2022-09-11T16:19:28.029Z,96808.88
2022-09-11T16:21:57.365Z,96812.22
2022-09-11T16:24:26.809Z,96806.88
2022-09-11T16:26:56.044Z,96810.91
2022-09-11T16:29:43.999Z,96807.22
2022-09-11T16:32:28.686Z,96813.78
2022-09-11T16:34:57.781Z,96813.25
2022-09-11T16:37:26.338Z,96815.28
2022-09-11T16:39:54.660Z,96814.97
2022-09-11T16:42:23.194Z,96808.09
2022-09-11T16:44:53.642Z,96807.28
2022-09-11T16:47:22.228Z,96811.31
2022-09-11T16:50:08.063Z,96808.97
2022-09-11T16:52:36.786Z,96808.97
2022-09-11T16:55:08.298Z,96813.16
2022-09-11T16:57:37.366Z,96808.97
2022-09-11T17:00:10.042Z,96802.97
2022-09-11T17:02:38.676Z,96798.59
2022-09-11T17:05:08.157Z,96800.59
2022-09-11T17:07:36.666Z,96802.78
2022-09-11T17:10:05.960Z,96800.28
2022-09-11T17:12:34.294Z,96812.31
2022-09-11T17:15:02.800Z,96800.09
2022-09-11T17:17:33.078Z,96802.63
2022-09-11T17:20:01.385Z,96802.31
2022-09-11T17:22:29.871Z,96804.97
2022-09-11T17:24:58.186Z,96799.97
2022-09-11T17:27:26.507Z,96795.94
2022-09-11T17:29:54.813Z,96801.66
2022-09-11T17:32:28.378Z,96798.31
2022-09-11T17:34:58.755Z,96806.84
2022-09-11T17:37:27.840Z,96805.50
2022-09-11T17:39:56.202Z,96806.34
2022-09-11T17:42:24.796Z,96809.34
2022-09-11T17:44:53.069Z,96813.38
2022-09-11T17:47:21.425Z,96810.34
2022-09-11T17:49:50.756Z,96823.06
2022-09-11T17:52:20.851Z,96821.72
2022-09-11T17:54:49.222Z,96822.22
2022-09-11T17:57:17.651Z,96819.19
2022-09-11T17:59:49.982Z,96821.34
2022-09-11T18:02:19.828Z,96822.69
2022-09-11T18:04:48.998Z,96822.38
2022-09-11T18:07:17.471Z,96823.66
2022-09-11T18:09:47.298Z,96823.63
2022-09-11T18:12:15.691Z,96818.59
2022-09-11T18:14:44.070Z,96825.13
2022-09-11T18:17:12.083Z,96825.09
2022-09-11T18:19:40.128Z,96827.41
2022-09-11T18:22:09.796Z,96820.38
2022-09-11T18:24:39.871Z,96825.34
2022-09-11T18:27:10.204Z,96834.69
2022-09-11T18:29:39.967Z,96835.50
2022-09-11T18:32:10.161Z,96838.44
2022-09-11T18:34:38.483Z,96830.44
2022-09-11T18:37:07.602Z,96829.09
2022-09-11T18:39:35.988Z,96831.03
2022-09-11T18:42:07.089Z,96828.00
2022-09-11T18:44:36.496Z,96832.16
2022-09-11T18:47:04.501Z,96836.13
2022-09-11T18:49:32.623Z,96829.59
2022-09-11T18:52:00.655Z,96825.53
2022-09-11T18:54:30.047Z,96825.94
2022-09-11T18:57:00.029Z,96832.44
2022-09-11T18:59:28.457Z,96827.56
2022-09-11T19:01:58.644Z,96835.88
2022-09-11T19:04:28.257Z,96834.50
2022-09-11T19:06:56.300Z,96835.97
2022-09-11T19:09:24.334Z,96839.81
2022-09-11T19:11:54.755Z,96841.25
2022-09-11T19:14:22.815Z,96845.06
2022-09-11T19:16:51.784Z,96839.03
2022-09-11T19:19:21.520Z,96840.19
2022-09-11T19:21:49.562Z,96837.69
2022-09-11T19:24:17.570Z,96835.75
2022-09-11T19:26:46.339Z,96840.72
2022-09-11T19:29:15.893Z,96845.38
2022-09-11T19:31:43.961Z,96845.16
2022-09-11T19:34:13.180Z,96847.97
2022-09-11T19:36:42.854Z,96841.25
2022-09-11T19:39:12.404Z,96842.25
2022-09-11T19:41:40.957Z,96850.03
2022-09-11T19:44:12.132Z,96852.47
2022-09-11T19:46:41.522Z,96846.59
2022-09-11T19:49:11.146Z,96856.72
2022-09-11T19:51:41.364Z,96852.53
2022-09-11T19:54:13.220Z,96853.94
2022-09-11T19:56:42.442Z,96861.53
2022-09-11T19:59:11.047Z,96856.66
2022-09-11T20:01:39.155Z,96850.09
2022-09-11T20:04:07.292Z,96849.84
2022-09-11T20:06:36.414Z,96846.66
2022-09-11T20:09:30.386Z,96846.50
2022-09-11T20:11:56.369Z,96847.94
2022-09-11T20:14:24.457Z,96846.94
2022-09-11T20:16:52.896Z,96848.50
2022-09-11T20:19:20.917Z,96844.88
2022-09-11T20:21:49.266Z,96845.47
2022-09-11T20:24:17.327Z,96846.59
2022-09-11T20:26:45.312Z,96845.22
2022-09-11T20:29:16.563Z,96846.34
2022-09-11T20:31:49.009Z,96842.59
2022-09-11T20:34:18.103Z,96841.50
2022-09-11T20:36:46.518Z,96845.72
2022-09-11T20:39:15.433Z,96851.06
2022-09-11T20:41:44.068Z,96848.00
2022-09-11T20:44:12.369Z,96839.44
2022-09-11T20:46:43.711Z,96842.28
2022-09-11T20:49:12.325Z,96835.13
2022-09-11T20:51:40.829Z,96833.72
2022-09-11T20:54:08.906Z,96833.03
2022-09-11T20:56:36.943Z,96842.31
2022-09-11T20:59:05.080Z,96837.97
2022-09-11T21:01:34.375Z,96833.66
2022-09-11T21:04:05.042Z,96833.22
2022-09-11T21:06:35.488Z,96831.56
2022-09-11T21:09:06.967Z,96832.38
2022-09-11T21:11:36.334Z,96834.34
2022-09-11T21:14:04.775Z,96837.28
2022-09-11T21:16:33.660Z,96835.59
2022-09-11T21:19:04.283Z,96839.56
2022-09-11T21:21:33.673Z,96836.19
2022-09-11T21:24:04.257Z,96835.78
2022-09-11T21:26:33.668Z,96846.28
2022-09-11T21:29:04.729Z,96837.47
2022-09-11T21:31:32.953Z,96833.69
2022-09-11T21:34:01.529Z,96833.97
2022-09-11T21:36:30.952Z,96833.81
2022-09-11T21:38:58.929Z,96830.31
2022-09-11T21:41:27.114Z,96828.78
2022-09-11T21:43:55.109Z,96839.31
2022-09-11T21:46:23.156Z,96829.22
2022-09-11T21:48:51.164Z,96827.69
2022-09-11T21:51:21.057Z,96829.75
2022-09-11T21:53:55.770Z,96830.63
2022-09-11T21:56:25.825Z,96826.81
2022-09-11T21:58:55.019Z,96826.16
2022-09-11T22:01:24.984Z,96818.28
2022-09-11T22:03:53.388Z,96827.53
2022-09-11T22:06:23.731Z,96832.00
2022-09-11T22:08:53.616Z,96828.66
2022-09-11T22:11:21.959Z,96825.56
2022-09-11T22:13:50.460Z,96836.19
2022-09-11T22:16:20.109Z,96836.75
2022-09-11T22:18:50.368Z,96838.84
2022-09-11T22:21:18.390Z,96836.47
2022-09-11T22:23:46.520Z,96834.66
2022-09-11T22:26:18.005Z,96832.53
2022-09-11T22:28:46.120Z,96827.78
2022-09-11T22:31:16.302Z,96830.00
2022-09-11T22:33:44.744Z,96826.50
2022-09-11T22:36:15.133Z,96825.66
2022-09-11T22:38:43.228Z,96826.06
2022-09-11T22:41:11.256Z,96826.06
2022-09-11T22:43:40.689Z,96814.75
2022-09-11T22:46:08.819Z,96820.63
2022-09-11T22:48:36.937Z,96823.00
2022-09-11T22:51:05.042Z,96823.94
2022-09-11T22:53:33.300Z,96818.22
2022-09-11T22:56:01.600Z,96815.38
2022-09-11T22:58:30.639Z,96816.34
2022-09-11T23:01:02.491Z,96812.84
2022-09-11T23:03:31.048Z,96815.78
2022-09-11T23:06:17.703Z,96813.56
2022-09-11T23:08:47.058Z,96819.69
2022-09-11T23:11:16.147Z,96822.06
2022-09-11T23:13:44.967Z,96820.91
2022-09-11T23:16:15.672Z,96814.47
2022-09-11T23:18:44.275Z,96806.94
2022-09-11T23:21:13.432Z,96814.19
2022-09-11T23:23:42.971Z,96806.38
2022-09-11T23:26:12.121Z,96808.88
2022-09-11T23:28:40.987Z,96802.19
2022-09-11T23:31:15.987Z,96799.78
2022-09-11T23:33:44.281Z,96801.47
2022-09-11T23:36:14.546Z,96801.59
2022-09-11T23:38:45.476Z,96806.34
2022-09-11T23:41:14.163Z,96802.41
2022-09-11T23:43:42.697Z,96794.00
2022-09-11T23:46:11.629Z,96793.88
2022-09-11T23:48:41.138Z,96794.69
2022-09-11T23:51:10.362Z,96798.03
2022-09-11T23:53:39.831Z,96788.66
2022-09-11T23:56:08.322Z,96795.19
2022-09-11T23:58:39.796Z,96791.44
